sensor_id;sensor_type;location;lat;lon;timestamp;P1;durP1;ratioP1;P2;durP2;ratioP2
17369;SDS011;8802;52.402;4.920;2023-05-14T00:01:28;14.00;;;12.60;;
17369;SDS011;8802;52.402;4.920;2023-05-14T00:03:55;13.55;;;12.15;;
17369;SDS011;8802;52.402;4.920;2023-05-14T00:06:23;12.10;;;10.82;;
17369;SDS011;8802;52.402;4.920;2023-05-14T00:08:50;14.45;;;12.95;;
17369;SDS011;8802;52.402;4.920;2023-05-14T00:11:17;13.82;;;12.52;;
17369;SDS011;8802;52.402;4.920;2023-05-14T00:13:44;14.38;;;11.82;;
17369;SDS011;8802;52.402;4.920;2023-05-14T00:16:11;14.82;;;13.32;;
17369;SDS011;8802;52.402;4.920;2023-05-14T00:18:38;13.57;;;12.38;;
17369;SDS011;8802;52.402;4.920;2023-05-14T00:21:05;14.85;;;13.18;;
17369;SDS011;8802;52.402;4.920;2023-05-14T00:23:33;11.50;;;10.32;;
17369;SDS011;8802;52.402;4.920;2023-05-14T00:26:00;11.90;;;10.70;;
17369;SDS011;8802;52.402;4.920;2023-05-14T00:28:27;14.07;;;12.18;;
17369;SDS011;8802;52.402;4.920;2023-05-14T00:30:53;13.38;;;12.18;;
17369;SDS011;8802;52.402;4.920;2023-05-14T00:33:21;13.93;;;11.77;;
17369;SDS011;8802;52.402;4.920;2023-05-14T00:35:48;12.43;;;11.25;;
17369;SDS011;8802;52.402;4.920;2023-05-14T00:38:15;13.05;;;11.75;;
17369;SDS011;8802;52.402;4.920;2023-05-14T00:40:45;14.10;;;12.70;;
17369;SDS011;8802;52.402;4.920;2023-05-14T00:43:15;13.57;;;12.27;;
17369;SDS011;8802;52.402;4.920;2023-05-14T00:45:43;16.60;;;12.35;;
17369;SDS011;8802;52.402;4.920;2023-05-14T00:48:10;14.88;;;12.88;;
17369;SDS011;8802;52.402;4.920;2023-05-14T00:50:37;13.68;;;12.43;;
17369;SDS011;8802;52.402;4.920;2023-05-14T00:53:04;12.65;;;11.43;;
17369;SDS011;8802;52.402;4.920;2023-05-14T00:55:34;14.60;;;12.43;;
17369;SDS011;8802;52.402;4.920;2023-05-14T00:58:03;13.05;;;11.85;;
17369;SDS011;8802;52.402;4.920;2023-05-14T01:00:32;12.10;;;10.85;;
17369;SDS011;8802;52.402;4.920;2023-05-14T01:02:59;13.13;;;11.70;;
17369;SDS011;8802;52.402;4.920;2023-05-14T01:05:27;14.77;;;13.10;;
17369;SDS011;8802;52.402;4.920;2023-05-14T01:08:00;11.30;;;10.25;;
17369;SDS011;8802;52.402;4.920;2023-05-14T01:10:39;14.48;;;11.98;;
17369;SDS011;8802;52.402;4.920;2023-05-14T01:13:21;12.55;;;11.27;;
17369;SDS011;8802;52.402;4.920;2023-05-14T01:15:58;13.95;;;12.65;;
17369;SDS011;8802;52.402;4.920;2023-05-14T01:18:25;12.98;;;11.63;;
17369;SDS011;8802;52.402;4.920;2023-05-14T01:20:54;15.57;;;11.85;;
17369;SDS011;8802;52.402;4.920;2023-05-14T01:23:22;13.60;;;12.35;;
17369;SDS011;8802;52.402;4.920;2023-05-14T01:25:49;13.68;;;12.38;;
17369;SDS011;8802;52.402;4.920;2023-05-14T01:28:16;11.93;;;10.77;;
17369;SDS011;8802;52.402;4.920;2023-05-14T01:30:47;13.02;;;11.75;;
17369;SDS011;8802;52.402;4.920;2023-05-14T01:33:20;13.23;;;11.93;;
17369;SDS011;8802;52.402;4.920;2023-05-14T01:35:49;14.15;;;12.25;;
17369;SDS011;8802;52.402;4.920;2023-05-14T01:38:17;13.68;;;12.30;;
17369;SDS011;8802;52.402;4.920;2023-05-14T01:40:46;11.50;;;10.45;;
17369;SDS011;8802;52.402;4.920;2023-05-14T01:43:15;17.58;;;12.43;;
17369;SDS011;8802;52.402;4.920;2023-05-14T01:45:42;12.48;;;11.27;;
17369;SDS011;8802;52.402;4.920;2023-05-14T01:48:09;13.00;;;11.55;;
17369;SDS011;8802;52.402;4.920;2023-05-14T01:50:36;12.23;;;10.95;;
17369;SDS011;8802;52.402;4.920;2023-05-14T01:53:03;11.57;;;10.57;;
17369;SDS011;8802;52.402;4.920;2023-05-14T01:55:29;14.18;;;12.55;;
17369;SDS011;8802;52.402;4.920;2023-05-14T01:57:58;12.50;;;11.20;;
17369;SDS011;8802;52.402;4.920;2023-05-14T02:00:25;14.40;;;11.88;;
17369;SDS011;8802;52.402;4.920;2023-05-14T02:02:52;12.15;;;10.85;;
17369;SDS011;8802;52.402;4.920;2023-05-14T02:05:19;13.55;;;12.23;;
17369;SDS011;8802;52.402;4.920;2023-05-14T02:07:46;10.48;;;9.48;;
17369;SDS011;8802;52.402;4.920;2023-05-14T02:10:12;12.52;;;11.27;;
17369;SDS011;8802;52.402;4.920;2023-05-14T02:12:39;13.02;;;10.68;;
17369;SDS011;8802;52.402;4.920;2023-05-14T02:15:08;11.68;;;10.57;;
17369;SDS011;8802;52.402;4.920;2023-05-14T02:17:35;11.35;;;10.15;;
17369;SDS011;8802;52.402;4.920;2023-05-14T02:20:02;12.43;;;10.18;;
17369;SDS011;8802;52.402;4.920;2023-05-14T02:22:30;12.40;;;10.55;;
17369;SDS011;8802;52.402;4.920;2023-05-14T02:24:57;11.40;;;10.23;;
17369;SDS011;8802;52.402;4.920;2023-05-14T02:27:24;13.60;;;11.13;;
17369;SDS011;8802;52.402;4.920;2023-05-14T02:29:51;11.18;;;10.05;;
17369;SDS011;8802;52.402;4.920;2023-05-14T02:32:19;15.63;;;10.95;;
17369;SDS011;8802;52.402;4.920;2023-05-14T02:34:46;11.23;;;10.13;;
17369;SDS011;8802;52.402;4.920;2023-05-14T02:37:13;11.38;;;10.23;;
17369;SDS011;8802;52.402;4.920;2023-05-14T02:39:40;10.90;;;9.80;;
17369;SDS011;8802;52.402;4.920;2023-05-14T02:42:06;12.55;;;10.95;;
17369;SDS011;8802;52.402;4.920;2023-05-14T02:44:33;11.23;;;10.07;;
17369;SDS011;8802;52.402;4.920;2023-05-14T02:47:00;11.48;;;10.40;;
17369;SDS011;8802;52.402;4.920;2023-05-14T02:49:28;11.20;;;10.10;;
17369;SDS011;8802;52.402;4.920;2023-05-14T02:51:55;11.52;;;10.43;;
17369;SDS011;8802;52.402;4.920;2023-05-14T02:54:24;11.85;;;9.75;;
17369;SDS011;8802;52.402;4.920;2023-05-14T02:56:51;10.43;;;9.43;;
17369;SDS011;8802;52.402;4.920;2023-05-14T02:59:18;10.43;;;9.43;;
17369;SDS011;8802;52.402;4.920;2023-05-14T03:01:45;12.05;;;10.93;;
17369;SDS011;8802;52.402;4.920;2023-05-14T03:04:12;11.07;;;10.05;;
17369;SDS011;8802;52.402;4.920;2023-05-14T03:06:40;11.43;;;9.85;;
17369;SDS011;8802;52.402;4.920;2023-05-14T03:09:07;10.90;;;9.68;;
17369;SDS011;8802;52.402;4.920;2023-05-14T03:11:34;11.70;;;9.95;;
17369;SDS011;8802;52.402;4.920;2023-05-14T03:14:01;12.93;;;10.32;;
17369;SDS011;8802;52.402;4.920;2023-05-14T03:16:27;11.45;;;10.18;;
17369;SDS011;8802;52.402;4.920;2023-05-14T03:18:54;11.57;;;10.38;;
17369;SDS011;8802;52.402;4.920;2023-05-14T03:21:21;10.90;;;9.45;;
17369;SDS011;8802;52.402;4.920;2023-05-14T03:23:50;12.45;;;11.10;;
17369;SDS011;8802;52.402;4.920;2023-05-14T03:26:17;13.63;;;10.90;;
17369;SDS011;8802;52.402;4.920;2023-05-14T03:28:45;11.95;;;10.77;;
17369;SDS011;8802;52.402;4.920;2023-05-14T03:31:12;13.73;;;11.70;;
17369;SDS011;8802;52.402;4.920;2023-05-14T03:33:39;12.20;;;10.93;;
17369;SDS011;8802;52.402;4.920;2023-05-14T03:36:06;12.10;;;11.10;;
17369;SDS011;8802;52.402;4.920;2023-05-14T03:38:33;14.02;;;12.18;;
17369;SDS011;8802;52.402;4.920;2023-05-14T03:41:02;13.80;;;11.85;;
17369;SDS011;8802;52.402;4.920;2023-05-14T03:43:29;14.20;;;12.50;;
17369;SDS011;8802;52.402;4.920;2023-05-14T03:45:56;13.20;;;12.00;;
17369;SDS011;8802;52.402;4.920;2023-05-14T03:48:22;14.63;;;13.23;;
17369;SDS011;8802;52.402;4.920;2023-05-14T03:50:49;13.23;;;11.93;;
17369;SDS011;8802;52.402;4.920;2023-05-14T03:53:16;14.77;;;12.77;;
17369;SDS011;8802;52.402;4.920;2023-05-14T03:55:43;13.75;;;12.45;;
17369;SDS011;8802;52.402;4.920;2023-05-14T03:58:11;13.48;;;12.07;;
17369;SDS011;8802;52.402;4.920;2023-05-14T04:00:39;15.23;;;13.73;;
17369;SDS011;8802;52.402;4.920;2023-05-14T04:03:06;15.40;;;12.65;;
17369;SDS011;8802;52.402;4.920;2023-05-14T04:05:33;13.35;;;12.10;;
17369;SDS011;8802;52.402;4.920;2023-05-14T04:08:00;13.70;;;12.50;;
17369;SDS011;8802;52.402;4.920;2023-05-14T04:10:27;13.38;;;12.05;;
17369;SDS011;8802;52.402;4.920;2023-05-14T04:12:54;15.35;;;13.77;;
17369;SDS011;8802;52.402;4.920;2023-05-14T04:15:22;15.15;;;13.52;;
17369;SDS011;8802;52.402;4.920;2023-05-14T04:17:49;13.00;;;11.80;;
17369;SDS011;8802;52.402;4.920;2023-05-14T04:20:16;13.10;;;11.80;;
17369;SDS011;8802;52.402;4.920;2023-05-14T04:22:43;15.32;;;13.73;;
17369;SDS011;8802;52.402;4.920;2023-05-14T04:25:09;12.60;;;11.50;;
17369;SDS011;8802;52.402;4.920;2023-05-14T04:27:36;13.70;;;12.35;;
17369;SDS011;8802;52.402;4.920;2023-05-14T04:30:03;14.25;;;12.05;;
17369;SDS011;8802;52.402;4.920;2023-05-14T04:32:33;14.75;;;12.27;;
17369;SDS011;8802;52.402;4.920;2023-05-14T04:35:00;15.98;;;13.82;;
17369;SDS011;8802;52.402;4.920;2023-05-14T04:37:28;14.65;;;12.90;;
17369;SDS011;8802;52.402;4.920;2023-05-14T04:39:55;14.57;;;13.10;;
17369;SDS011;8802;52.402;4.920;2023-05-14T04:42:22;15.98;;;13.63;;
17369;SDS011;8802;52.402;4.920;2023-05-14T04:44:49;13.98;;;12.43;;
17369;SDS011;8802;52.402;4.920;2023-05-14T04:47:16;13.80;;;12.45;;
17369;SDS011;8802;52.402;4.920;2023-05-14T04:49:45;15.27;;;13.70;;
17369;SDS011;8802;52.402;4.920;2023-05-14T04:52:11;13.10;;;11.80;;
17369;SDS011;8802;52.402;4.920;2023-05-14T04:54:38;12.90;;;11.82;;
17369;SDS011;8802;52.402;4.920;2023-05-14T04:57:05;15.63;;;14.02;;
17369;SDS011;8802;52.402;4.920;2023-05-14T04:59:32;15.60;;;14.10;;
17369;SDS011;8802;52.402;4.920;2023-05-14T05:01:59;14.95;;;13.57;;
17369;SDS011;8802;52.402;4.920;2023-05-14T05:04:26;15.90;;;14.30;;
17369;SDS011;8802;52.402;4.920;2023-05-14T05:06:54;16.17;;;14.48;;
17369;SDS011;8802;52.402;4.920;2023-05-14T05:09:21;14.85;;;13.45;;
17369;SDS011;8802;52.402;4.920;2023-05-14T05:11:48;15.65;;;14.05;;
17369;SDS011;8802;52.402;4.920;2023-05-14T05:14:15;14.82;;;13.18;;
17369;SDS011;8802;52.402;4.920;2023-05-14T05:16:42;15.40;;;14.00;;
17369;SDS011;8802;52.402;4.920;2023-05-14T05:19:09;16.10;;;13.85;;
17369;SDS011;8802;52.402;4.920;2023-05-14T05:21:36;14.40;;;12.88;;
17369;SDS011;8802;52.402;4.920;2023-05-14T05:24:06;14.57;;;13.23;;
17369;SDS011;8802;52.402;4.920;2023-05-14T05:26:33;13.50;;;12.10;;
17369;SDS011;8802;52.402;4.920;2023-05-14T05:29:01;15.15;;;13.63;;
17369;SDS011;8802;52.402;4.920;2023-05-14T05:31:28;13.75;;;12.32;;
17369;SDS011;8802;52.402;4.920;2023-05-14T05:33:55;13.80;;;12.40;;
17369;SDS011;8802;52.402;4.920;2023-05-14T05:36:22;15.18;;;13.68;;
17369;SDS011;8802;52.402;4.920;2023-05-14T05:38:49;12.52;;;11.32;;
17369;SDS011;8802;52.402;4.920;2023-05-14T05:41:17;15.43;;;13.93;;
17369;SDS011;8802;52.402;4.920;2023-05-14T05:43:44;13.82;;;11.93;;
17369;SDS011;8802;52.402;4.920;2023-05-14T05:46:11;14.80;;;13.20;;
17369;SDS011;8802;52.402;4.920;2023-05-14T05:48:38;14.45;;;13.05;;
17369;SDS011;8802;52.402;4.920;2023-05-14T05:51:05;15.10;;;12.38;;
17369;SDS011;8802;52.402;4.920;2023-05-14T05:53:31;13.38;;;12.00;;
17369;SDS011;8802;52.402;4.920;2023-05-14T05:55:58;14.10;;;12.60;;
17369;SDS011;8802;52.402;4.920;2023-05-14T05:58:26;14.07;;;12.60;;
17369;SDS011;8802;52.402;4.920;2023-05-14T06:00:53;14.50;;;13.07;;
17369;SDS011;8802;52.402;4.920;2023-05-14T06:03:21;13.05;;;11.98;;
17369;SDS011;8802;52.402;4.920;2023-05-14T06:05:48;14.25;;;11.90;;
17369;SDS011;8802;52.402;4.920;2023-05-14T06:08:16;13.60;;;12.40;;
17369;SDS011;8802;52.402;4.920;2023-05-14T06:10:43;11.70;;;10.45;;
17369;SDS011;8802;52.402;4.920;2023-05-14T06:13:10;13.38;;;12.02;;
17369;SDS011;8802;52.402;4.920;2023-05-14T06:15:39;12.10;;;10.95;;
17369;SDS011;8802;52.402;4.920;2023-05-14T06:18:05;13.60;;;11.02;;
17369;SDS011;8802;52.402;4.920;2023-05-14T06:20:32;12.27;;;11.07;;
17369;SDS011;8802;52.402;4.920;2023-05-14T06:22:59;11.45;;;9.65;;
17369;SDS011;8802;52.402;4.920;2023-05-14T06:25:26;11.70;;;10.30;;
17369;SDS011;8802;52.402;4.920;2023-05-14T06:27:53;13.07;;;11.80;;
17369;SDS011;8802;52.402;4.920;2023-05-14T06:30:20;13.40;;;10.90;;
17369;SDS011;8802;52.402;4.920;2023-05-14T06:32:48;12.75;;;10.25;;
17369;SDS011;8802;52.402;4.920;2023-05-14T06:35:15;12.25;;;9.43;;
17369;SDS011;8802;52.402;4.920;2023-05-14T06:37:42;11.57;;;8.75;;
17369;SDS011;8802;52.402;4.920;2023-05-14T06:40:10;10.73;;;9.23;;
17369;SDS011;8802;52.402;4.920;2023-05-14T06:42:39;9.93;;;8.48;;
17369;SDS011;8802;52.402;4.920;2023-05-14T06:45:06;10.88;;;9.60;;
17369;SDS011;8802;52.402;4.920;2023-05-14T06:47:33;12.73;;;8.90;;
17369;SDS011;8802;52.402;4.920;2023-05-14T06:50:02;10.68;;;8.82;;
17369;SDS011;8802;52.402;4.920;2023-05-14T06:52:29;10.43;;;9.52;;
17369;SDS011;8802;52.402;4.920;2023-05-14T06:54:55;12.30;;;9.50;;
17369;SDS011;8802;52.402;4.920;2023-05-14T06:57:22;13.30;;;8.27;;
17369;SDS011;8802;52.402;4.920;2023-05-14T06:59:49;9.60;;;8.02;;
17369;SDS011;8802;52.402;4.920;2023-05-14T07:02:16;9.30;;;8.10;;
17369;SDS011;8802;52.402;4.920;2023-05-14T07:04:43;8.38;;;7.50;;
17369;SDS011;8802;52.402;4.920;2023-05-14T07:07:11;10.65;;;9.65;;
17369;SDS011;8802;52.402;4.920;2023-05-14T07:09:42;11.05;;;9.00;;
17369;SDS011;8802;52.402;4.920;2023-05-14T07:12:09;14.73;;;9.60;;
17369;SDS011;8802;52.402;4.920;2023-05-14T07:14:36;11.15;;;8.95;;
17369;SDS011;8802;52.402;4.920;2023-05-14T07:17:03;13.10;;;10.20;;
17369;SDS011;8802;52.402;4.920;2023-05-14T07:19:30;12.60;;;9.02;;
17369;SDS011;8802;52.402;4.920;2023-05-14T07:21:56;10.82;;;8.80;;
17369;SDS011;8802;52.402;4.920;2023-05-14T07:24:25;9.45;;;8.40;;
17369;SDS011;8802;52.402;4.920;2023-05-14T07:26:51;11.05;;;8.98;;
17369;SDS011;8802;52.402;4.920;2023-05-14T07:29:21;12.65;;;10.13;;
17369;SDS011;8802;52.402;4.920;2023-05-14T07:31:49;9.75;;;8.65;;
17369;SDS011;8802;52.402;4.920;2023-05-14T07:34:15;11.48;;;10.27;;
17369;SDS011;8802;52.402;4.920;2023-05-14T07:36:43;14.07;;;9.40;;
17369;SDS011;8802;52.402;4.920;2023-05-14T07:39:09;10.18;;;9.15;;
17369;SDS011;8802;52.402;4.920;2023-05-14T07:41:38;16.58;;;10.35;;
17369;SDS011;8802;52.402;4.920;2023-05-14T07:44:04;10.65;;;9.32;;
17369;SDS011;8802;52.402;4.920;2023-05-14T07:46:31;12.77;;;9.70;;
17369;SDS011;8802;52.402;4.920;2023-05-14T07:48:58;11.18;;;8.63;;
17369;SDS011;8802;52.402;4.920;2023-05-14T07:51:25;9.65;;;8.32;;
17369;SDS011;8802;52.402;4.920;2023-05-14T07:53:52;11.95;;;8.63;;
17369;SDS011;8802;52.402;4.920;2023-05-14T07:56:19;12.25;;;8.25;;
17369;SDS011;8802;52.402;4.920;2023-05-14T07:58:47;13.82;;;9.38;;
17369;SDS011;8802;52.402;4.920;2023-05-14T08:01:15;10.07;;;8.30;;
17369;SDS011;8802;52.402;4.920;2023-05-14T08:03:41;10.18;;;8.73;;
17369;SDS011;8802;52.402;4.920;2023-05-14T08:06:08;14.60;;;8.63;;
17369;SDS011;8802;52.402;4.920;2023-05-14T08:08:35;11.48;;;7.88;;
17369;SDS011;8802;52.402;4.920;2023-05-14T08:11:02;9.00;;;7.30;;
17369;SDS011;8802;52.402;4.920;2023-05-14T08:13:29;8.63;;;7.28;;
17369;SDS011;8802;52.402;4.920;2023-05-14T08:15:57;9.00;;;7.90;;
17369;SDS011;8802;52.402;4.920;2023-05-14T08:18:24;10.63;;;8.32;;
17369;SDS011;8802;52.402;4.920;2023-05-14T08:20:51;11.18;;;8.27;;
17369;SDS011;8802;52.402;4.920;2023-05-14T08:23:18;8.52;;;7.63;;
17369;SDS011;8802;52.402;4.920;2023-05-14T08:25:44;9.40;;;6.78;;
17369;SDS011;8802;52.402;4.920;2023-05-14T08:28:11;11.57;;;7.05;;
17369;SDS011;8802;52.402;4.920;2023-05-14T08:30:38;8.10;;;6.53;;
17369;SDS011;8802;52.402;4.920;2023-05-14T08:33:06;10.18;;;7.25;;
17369;SDS011;8802;52.402;4.920;2023-05-14T08:35:33;9.45;;;6.65;;
17369;SDS011;8802;52.402;4.920;2023-05-14T08:38:00;9.82;;;7.55;;
17369;SDS011;8802;52.402;4.920;2023-05-14T08:40:27;12.68;;;7.18;;
17369;SDS011;8802;52.402;4.920;2023-05-14T08:42:54;10.85;;;7.55;;
17369;SDS011;8802;52.402;4.920;2023-05-14T08:45:23;9.45;;;7.25;;
17369;SDS011;8802;52.402;4.920;2023-05-14T08:47:57;8.30;;;6.63;;
17369;SDS011;8802;52.402;4.920;2023-05-14T08:50:27;13.13;;;8.07;;
17369;SDS011;8802;52.402;4.920;2023-05-14T08:52:55;10.93;;;7.72;;
17369;SDS011;8802;52.402;4.920;2023-05-14T08:55:21;11.15;;;7.05;;
17369;SDS011;8802;52.402;4.920;2023-05-14T08:57:50;10.25;;;8.05;;
17369;SDS011;8802;52.402;4.920;2023-05-14T09:00:17;9.00;;;8.05;;
17369;SDS011;8802;52.402;4.920;2023-05-14T09:02:44;11.85;;;7.90;;
17369;SDS011;8802;52.402;4.920;2023-05-14T09:05:12;10.25;;;7.57;;
17369;SDS011;8802;52.402;4.920;2023-05-14T09:07:43;10.98;;;7.63;;
17369;SDS011;8802;52.402;4.920;2023-05-14T09:10:10;8.55;;;7.75;;
17369;SDS011;8802;52.402;4.920;2023-05-14T09:12:39;11.52;;;7.70;;
17369;SDS011;8802;52.402;4.920;2023-05-14T09:15:06;11.65;;;7.07;;
17369;SDS011;8802;52.402;4.920;2023-05-14T09:17:33;10.05;;;7.30;;
17369;SDS011;8802;52.402;4.920;2023-05-14T09:20:00;9.93;;;6.22;;
17369;SDS011;8802;52.402;4.920;2023-05-14T09:22:28;12.10;;;6.57;;
17369;SDS011;8802;52.402;4.920;2023-05-14T09:25:05;9.48;;;6.80;;
17369;SDS011;8802;52.402;4.920;2023-05-14T09:27:33;14.70;;;8.60;;
17369;SDS011;8802;52.402;4.920;2023-05-14T09:30:04;8.05;;;6.18;;
17369;SDS011;8802;52.402;4.920;2023-05-14T09:32:39;10.13;;;6.57;;
17369;SDS011;8802;52.402;4.920;2023-05-14T09:35:08;9.60;;;6.68;;
17369;SDS011;8802;52.402;4.920;2023-05-14T09:37:41;8.45;;;6.25;;
17369;SDS011;8802;52.402;4.920;2023-05-14T09:40:10;7.88;;;5.97;;
17369;SDS011;8802;52.402;4.920;2023-05-14T09:42:37;9.52;;;6.35;;
17369;SDS011;8802;52.402;4.920;2023-05-14T09:45:05;8.98;;;5.53;;
17369;SDS011;8802;52.402;4.920;2023-05-14T09:47:33;6.68;;;5.50;;
17369;SDS011;8802;52.402;4.920;2023-05-14T09:50:00;6.00;;;4.90;;
17369;SDS011;8802;52.402;4.920;2023-05-14T09:52:27;7.70;;;5.55;;
17369;SDS011;8802;52.402;4.920;2023-05-14T09:54:54;9.55;;;5.82;;
17369;SDS011;8802;52.402;4.920;2023-05-14T09:57:22;8.80;;;5.30;;
17369;SDS011;8802;52.402;4.920;2023-05-14T09:59:50;7.93;;;5.20;;
17369;SDS011;8802;52.402;4.920;2023-05-14T10:02:21;12.95;;;6.22;;
17369;SDS011;8802;52.402;4.920;2023-05-14T10:04:49;8.95;;;5.45;;
17369;SDS011;8802;52.402;4.920;2023-05-14T10:07:20;10.70;;;5.53;;
17369;SDS011;8802;52.402;4.920;2023-05-14T10:09:49;7.72;;;5.25;;
17369;SDS011;8802;52.402;4.920;2023-05-14T10:12:23;5.93;;;4.78;;
17369;SDS011;8802;52.402;4.920;2023-05-14T10:14:54;7.30;;;4.85;;
17369;SDS011;8802;52.402;4.920;2023-05-14T10:17:28;8.70;;;5.30;;
17369;SDS011;8802;52.402;4.920;2023-05-14T10:19:57;11.13;;;4.43;;
17369;SDS011;8802;52.402;4.920;2023-05-14T10:22:27;9.77;;;5.72;;
17369;SDS011;8802;52.402;4.920;2023-05-14T10:24:57;8.05;;;4.63;;
17369;SDS011;8802;52.402;4.920;2023-05-14T10:27:26;7.30;;;4.68;;
17369;SDS011;8802;52.402;4.920;2023-05-14T10:29:54;7.07;;;4.47;;
17369;SDS011;8802;52.402;4.920;2023-05-14T10:32:22;7.85;;;4.47;;
17369;SDS011;8802;52.402;4.920;2023-05-14T10:34:50;8.77;;;5.15;;
17369;SDS011;8802;52.402;4.920;2023-05-14T10:37:19;7.78;;;4.35;;
17369;SDS011;8802;52.402;4.920;2023-05-14T10:39:48;8.27;;;4.60;;
17369;SDS011;8802;52.402;4.920;2023-05-14T10:42:17;8.18;;;4.20;;
17369;SDS011;8802;52.402;4.920;2023-05-14T10:44:48;7.20;;;4.53;;
17369;SDS011;8802;52.402;4.920;2023-05-14T10:47:17;8.27;;;4.47;;
17369;SDS011;8802;52.402;4.920;2023-05-14T10:49:45;9.98;;;4.72;;
17369;SDS011;8802;52.402;4.920;2023-05-14T10:52:17;7.75;;;4.57;;
17369;SDS011;8802;52.402;4.920;2023-05-14T10:54:47;7.47;;;5.30;;
17369;SDS011;8802;52.402;4.920;2023-05-14T10:57:16;6.25;;;4.13;;
17369;SDS011;8802;52.402;4.920;2023-05-14T10:59:43;11.20;;;5.03;;
17369;SDS011;8802;52.402;4.920;2023-05-14T11:02:23;6.93;;;4.82;;
17369;SDS011;8802;52.402;4.920;2023-05-14T11:04:54;10.75;;;4.80;;
17369;SDS011;8802;52.402;4.920;2023-05-14T11:07:24;7.68;;;4.70;;
17369;SDS011;8802;52.402;4.920;2023-05-14T11:09:59;10.15;;;5.53;;
17369;SDS011;8802;52.402;4.920;2023-05-14T11:12:28;8.65;;;5.30;;
17369;SDS011;8802;52.402;4.920;2023-05-14T11:14:56;7.13;;;4.68;;
17369;SDS011;8802;52.402;4.920;2023-05-14T11:17:25;6.68;;;5.25;;
17369;SDS011;8802;52.402;4.920;2023-05-14T11:19:53;6.78;;;4.13;;
17369;SDS011;8802;52.402;4.920;2023-05-14T11:22:20;13.43;;;4.90;;
17369;SDS011;8802;52.402;4.920;2023-05-14T11:24:48;6.78;;;4.38;;
17369;SDS011;8802;52.402;4.920;2023-05-14T11:27:15;6.20;;;4.38;;
17369;SDS011;8802;52.402;4.920;2023-05-14T11:29:42;8.63;;;4.22;;
17369;SDS011;8802;52.402;4.920;2023-05-14T11:32:10;7.05;;;4.20;;
17369;SDS011;8802;52.402;4.920;2023-05-14T11:34:39;5.28;;;4.50;;
17369;SDS011;8802;52.402;4.920;2023-05-14T11:37:07;8.88;;;4.80;;
17369;SDS011;8802;52.402;4.920;2023-05-14T11:39:34;7.43;;;4.60;;
17369;SDS011;8802;52.402;4.920;2023-05-14T11:42:02;6.90;;;4.38;;
17369;SDS011;8802;52.402;4.920;2023-05-14T11:44:30;6.40;;;4.38;;
17369;SDS011;8802;52.402;4.920;2023-05-14T11:46:57;6.00;;;3.92;;
17369;SDS011;8802;52.402;4.920;2023-05-14T11:49:25;7.40;;;4.75;;
17369;SDS011;8802;52.402;4.920;2023-05-14T11:51:58;8.38;;;4.70;;
17369;SDS011;8802;52.402;4.920;2023-05-14T11:54:26;6.85;;;4.40;;
17369;SDS011;8802;52.402;4.920;2023-05-14T11:56:53;8.73;;;4.15;;
17369;SDS011;8802;52.402;4.920;2023-05-14T11:59:21;5.32;;;4.53;;
17369;SDS011;8802;52.402;4.920;2023-05-14T12:01:49;6.03;;;5.10;;
17369;SDS011;8802;52.402;4.920;2023-05-14T12:04:17;6.18;;;4.80;;
17369;SDS011;8802;52.402;4.920;2023-05-14T12:06:46;7.53;;;4.55;;
17369;SDS011;8802;52.402;4.920;2023-05-14T12:09:16;6.88;;;4.50;;
17369;SDS011;8802;52.402;4.920;2023-05-14T12:11:43;5.07;;;4.30;;
17369;SDS011;8802;52.402;4.920;2023-05-14T12:14:10;6.22;;;4.47;;
17369;SDS011;8802;52.402;4.920;2023-05-14T12:16:39;8.27;;;5.00;;
17369;SDS011;8802;52.402;4.920;2023-05-14T12:19:07;8.60;;;5.00;;
17369;SDS011;8802;52.402;4.920;2023-05-14T12:21:36;9.32;;;4.55;;
17369;SDS011;8802;52.402;4.920;2023-05-14T12:24:04;9.88;;;4.55;;
17369;SDS011;8802;52.402;4.920;2023-05-14T12:26:35;4.60;;;3.90;;
17369;SDS011;8802;52.402;4.920;2023-05-14T12:29:03;8.50;;;4.65;;
17369;SDS011;8802;52.402;4.920;2023-05-14T12:31:32;7.40;;;5.25;;
17369;SDS011;8802;52.402;4.920;2023-05-14T12:34:00;7.88;;;4.50;;
17369;SDS011;8802;52.402;4.920;2023-05-14T12:36:28;7.75;;;4.97;;
17369;SDS011;8802;52.402;4.920;2023-05-14T12:38:57;7.82;;;4.45;;
17369;SDS011;8802;52.402;4.920;2023-05-14T12:41:26;6.13;;;4.97;;
17369;SDS011;8802;52.402;4.920;2023-05-14T12:43:54;7.65;;;4.72;;
17369;SDS011;8802;52.402;4.920;2023-05-14T12:46:21;6.22;;;4.43;;
17369;SDS011;8802;52.402;4.920;2023-05-14T12:48:48;5.30;;;4.50;;
17369;SDS011;8802;52.402;4.920;2023-05-14T12:51:15;7.35;;;4.70;;
17369;SDS011;8802;52.402;4.920;2023-05-14T12:53:42;7.30;;;5.03;;
17369;SDS011;8802;52.402;4.920;2023-05-14T12:56:08;7.95;;;4.40;;
17369;SDS011;8802;52.402;4.920;2023-05-14T12:58:35;8.02;;;5.50;;
17369;SDS011;8802;52.402;4.920;2023-05-14T13:01:04;6.32;;;4.82;;
17369;SDS011;8802;52.402;4.920;2023-05-14T13:03:31;8.93;;;5.28;;
17369;SDS011;8802;52.402;4.920;2023-05-14T13:05:58;8.63;;;5.13;;
17369;SDS011;8802;52.402;4.920;2023-05-14T13:08:25;7.07;;;4.93;;
17369;SDS011;8802;52.402;4.920;2023-05-14T13:10:52;7.22;;;4.53;;
17369;SDS011;8802;52.402;4.920;2023-05-14T13:13:20;7.70;;;5.00;;
17369;SDS011;8802;52.402;4.920;2023-05-14T13:15:47;7.30;;;4.75;;
17369;SDS011;8802;52.402;4.920;2023-05-14T13:18:16;9.25;;;5.50;;
17369;SDS011;8802;52.402;4.920;2023-05-14T13:20:43;6.03;;;5.20;;
17369;SDS011;8802;52.402;4.920;2023-05-14T13:23:11;9.23;;;5.50;;
17369;SDS011;8802;52.402;4.920;2023-05-14T13:25:37;7.32;;;4.90;;
17369;SDS011;8802;52.402;4.920;2023-05-14T13:28:04;10.25;;;5.05;;
17369;SDS011;8802;52.402;4.920;2023-05-14T13:30:31;5.03;;;4.50;;
17369;SDS011;8802;52.402;4.920;2023-05-14T13:32:58;7.32;;;4.22;;
17369;SDS011;8802;52.402;4.920;2023-05-14T13:35:26;4.78;;;4.38;;
17369;SDS011;8802;52.402;4.920;2023-05-14T13:37:53;7.63;;;4.68;;
17369;SDS011;8802;52.402;4.920;2023-05-14T13:40:20;5.05;;;4.57;;
17369;SDS011;8802;52.402;4.920;2023-05-14T13:42:47;6.32;;;4.45;;
17369;SDS011;8802;52.402;4.920;2023-05-14T13:45:14;6.45;;;4.53;;
17369;SDS011;8802;52.402;4.920;2023-05-14T13:47:40;5.55;;;4.70;;
17369;SDS011;8802;52.402;4.920;2023-05-14T13:50:08;4.35;;;3.85;;
17369;SDS011;8802;52.402;4.920;2023-05-14T13:52:37;6.88;;;4.63;;
17369;SDS011;8802;52.402;4.920;2023-05-14T13:55:04;7.57;;;4.38;;
17369;SDS011;8802;52.402;4.920;2023-05-14T13:57:32;6.40;;;4.80;;
17369;SDS011;8802;52.402;4.920;2023-05-14T13:59:59;4.75;;;4.35;;
17369;SDS011;8802;52.402;4.920;2023-05-14T14:02:26;4.93;;;4.22;;
17369;SDS011;8802;52.402;4.920;2023-05-14T14:04:53;4.50;;;4.10;;
17369;SDS011;8802;52.402;4.920;2023-05-14T14:07:20;5.05;;;4.45;;
17369;SDS011;8802;52.402;4.920;2023-05-14T14:09:48;8.93;;;4.20;;
17369;SDS011;8802;52.402;4.920;2023-05-14T14:12:15;4.82;;;3.72;;
17369;SDS011;8802;52.402;4.920;2023-05-14T14:14:41;6.75;;;4.30;;
17369;SDS011;8802;52.402;4.920;2023-05-14T14:17:08;8.02;;;3.88;;
17369;SDS011;8802;52.402;4.920;2023-05-14T14:19:35;5.85;;;4.60;;
17369;SDS011;8802;52.402;4.920;2023-05-14T14:22:02;7.18;;;4.38;;
17369;SDS011;8802;52.402;4.920;2023-05-14T14:24:29;6.28;;;4.35;;
17369;SDS011;8802;52.402;4.920;2023-05-14T14:26:58;6.70;;;4.25;;
17369;SDS011;8802;52.402;4.920;2023-05-14T14:29:26;6.85;;;4.38;;
17369;SDS011;8802;52.402;4.920;2023-05-14T14:31:55;6.43;;;4.80;;
17369;SDS011;8802;52.402;4.920;2023-05-14T14:34:22;6.05;;;5.03;;
17369;SDS011;8802;52.402;4.920;2023-05-14T14:36:48;6.28;;;4.20;;
17369;SDS011;8802;52.402;4.920;2023-05-14T14:39:15;8.68;;;5.05;;
17369;SDS011;8802;52.402;4.920;2023-05-14T14:41:42;8.88;;;4.60;;
17369;SDS011;8802;52.402;4.920;2023-05-14T14:44:10;6.18;;;4.35;;
17369;SDS011;8802;52.402;4.920;2023-05-14T14:46:37;9.05;;;4.88;;
17369;SDS011;8802;52.402;4.920;2023-05-14T14:49:06;8.05;;;4.07;;
17369;SDS011;8802;52.402;4.920;2023-05-14T14:51:33;6.32;;;4.85;;